Terminal Aerodrome Forecast
Issued by NWS Caribou, ME

Home | Current Version | Previous Version | Text Only | Print | Product List | Glossary On
Versions: 1 2 3 4 5 6 7 8 9 10 11 12 13 14 15 16 17 18 19
337
FTUS41 KCAR 181120
TAFCAR
TAF
KCAR 181120Z 1812/1912 27006KT P6SM SCT030
     FM181400 29010G19KT P6SM FEW250
     FM182100 28005KT P6SM FEW150
     FM190400 19004KT P6SM SKC=

USA.gov is the U.S. government's official web portal to all federal, state and local government web resources and services.